createdAt,value
2018-11-01T00:01:38.186Z,5.00
2018-11-01T00:03:50.395Z,4.37
2018-11-01T00:06:02.594Z,5.67
2018-11-01T00:08:14.797Z,5.83
2018-11-01T00:10:26.970Z,5.63
2018-11-01T00:12:40.030Z,5.30
2018-11-01T00:14:52.251Z,5.60
2018-11-01T00:17:04.733Z,5.53
2018-11-01T00:19:16.993Z,5.37
2018-11-01T00:21:29.158Z,5.40
2018-11-01T00:23:41.374Z,5.30
2018-11-01T00:25:53.537Z,4.93
2018-11-01T00:28:05.761Z,5.17
2018-11-01T00:30:17.966Z,4.80
2018-11-01T00:32:30.141Z,6.37
2018-11-01T00:34:42.339Z,4.57
2018-11-01T00:36:54.554Z,5.20
2018-11-01T00:39:09.324Z,5.33
2018-11-01T00:41:21.507Z,5.20
2018-11-01T00:43:33.774Z,5.17
2018-11-01T00:45:45.992Z,4.93
2018-11-01T00:47:58.195Z,4.90
2018-11-01T00:50:12.427Z,5.03
2018-11-01T00:52:24.574Z,5.20
2018-11-01T00:54:36.924Z,4.60
2018-11-01T00:56:49.171Z,4.23
2018-11-01T00:59:01.329Z,3.83
2018-11-01T01:01:13.526Z,4.37
2018-11-01T01:03:25.702Z,4.07
2018-11-01T01:05:37.900Z,4.43
2018-11-01T01:07:50.071Z,4.40
2018-11-01T01:10:02.276Z,3.97
2018-11-01T01:12:14.475Z,4.17
2018-11-01T01:14:26.639Z,4.10
2018-11-01T01:16:38.838Z,3.90
2018-11-01T01:18:51.081Z,3.60
2018-11-01T01:21:03.302Z,3.40
2018-11-01T01:23:15.513Z,3.67
2018-11-01T01:25:27.710Z,3.30
2018-11-01T01:27:39.891Z,3.60
2018-11-01T01:29:52.049Z,3.23
2018-11-01T01:32:04.226Z,3.93
2018-11-01T01:34:16.411Z,3.60
2018-11-01T01:36:28.586Z,3.50
2018-11-01T01:38:40.745Z,3.90
2018-11-01T01:40:52.930Z,3.60
2018-11-01T01:43:05.140Z,3.30
2018-11-01T01:45:17.335Z,3.23
2018-11-01T01:47:29.505Z,3.67
2018-11-01T01:49:41.698Z,3.80
2018-11-01T01:51:53.899Z,3.17
2018-11-01T01:54:06.075Z,3.43
2018-11-01T01:56:18.281Z,3.50
2018-11-01T01:58:30.466Z,3.30
2018-11-01T02:00:42.626Z,3.70
2018-11-01T02:02:54.826Z,3.57
2018-11-01T02:05:07.462Z,3.33
2018-11-01T02:07:19.656Z,2.90
2018-11-01T02:09:31.874Z,3.03
2018-11-01T02:11:44.093Z,3.77
2018-11-01T02:13:56.251Z,3.90
2018-11-01T02:16:08.436Z,3.80
2018-11-01T02:18:20.597Z,3.70
2018-11-01T02:20:32.199Z,3.70
2018-11-01T02:22:44.850Z,3.87
2018-11-01T02:24:57.070Z,2.57
2018-11-01T02:27:09.249Z,3.70
2018-11-01T02:29:21.435Z,3.23
2018-11-01T02:31:33.617Z,3.60
2018-11-01T02:33:45.780Z,3.33
2018-11-01T02:35:57.968Z,3.97
2018-11-01T02:38:10.253Z,3.97
2018-11-01T02:40:22.375Z,4.30
2018-11-01T02:42:34.744Z,3.90
2018-11-01T02:44:46.946Z,3.90
2018-11-01T02:46:59.134Z,4.13
2018-11-01T02:49:11.367Z,3.70
2018-11-01T02:51:23.575Z,3.20
2018-11-01T02:53:35.734Z,3.30
2018-11-01T02:55:47.950Z,3.20
2018-11-01T02:58:00.132Z,4.17
2018-11-01T03:00:13.995Z,3.80
2018-11-01T03:02:26.178Z,3.57
2018-11-01T03:04:38.379Z,3.53
2018-11-01T03:06:50.599Z,3.37
2018-11-01T03:09:03.463Z,3.83
2018-11-01T03:11:15.698Z,3.73
2018-11-01T03:13:27.850Z,3.30
2018-11-01T03:15:40.035Z,3.43
2018-11-01T03:17:52.214Z,3.50
2018-11-01T03:20:05.492Z,3.50
2018-11-01T03:22:17.696Z,3.30
2018-11-01T03:24:29.956Z,3.33
2018-11-01T03:26:42.364Z,3.83
2018-11-01T03:28:54.445Z,3.17
2018-11-01T03:31:06.630Z,3.33
2018-11-01T03:33:18.879Z,3.90
2018-11-01T03:35:31.066Z,3.90
2018-11-01T03:37:43.246Z,3.30
2018-11-01T03:39:55.410Z,3.00
2018-11-01T03:42:07.631Z,3.40
2018-11-01T03:44:19.796Z,3.60
2018-11-01T03:46:31.977Z,3.70
2018-11-01T03:48:44.258Z,3.37
2018-11-01T03:50:56.426Z,3.33
2018-11-01T03:53:08.628Z,3.93
2018-11-01T03:55:20.770Z,3.63
2018-11-01T03:57:32.980Z,3.57
2018-11-01T03:59:45.159Z,3.53
2018-11-01T04:01:57.324Z,3.60
2018-11-01T04:04:09.529Z,3.87
2018-11-01T04:06:21.718Z,4.00
2018-11-01T04:08:33.899Z,3.40
2018-11-01T04:10:46.071Z,4.37
2018-11-01T04:12:58.270Z,4.13
2018-11-01T04:15:11.886Z,4.77
2018-11-01T04:17:23.973Z,3.50
2018-11-01T04:19:36.143Z,4.10
2018-11-01T04:22:01.475Z,3.70
2018-11-01T04:24:13.681Z,3.97
2018-11-01T04:26:26.061Z,3.57
2018-11-01T04:28:38.322Z,4.37
2018-11-01T04:30:50.470Z,4.13
2018-11-01T04:33:02.681Z,3.60
2018-11-01T04:35:14.851Z,3.87
2018-11-01T04:37:27.094Z,4.40
2018-11-01T04:39:39.285Z,3.57
2018-11-01T04:41:51.478Z,4.23
2018-11-01T04:44:04.895Z,3.57
2018-11-01T04:46:17.042Z,4.07
2018-11-01T04:48:29.258Z,3.93
2018-11-01T04:50:41.447Z,3.80
2018-11-01T04:52:53.627Z,4.40
2018-11-01T04:55:06.563Z,3.93
2018-11-01T04:57:18.762Z,3.47
2018-11-01T04:59:30.960Z,4.17
2018-11-01T05:01:43.146Z,3.10
2018-11-01T05:03:55.343Z,3.60
2018-11-01T05:06:07.536Z,3.60
2018-11-01T05:08:19.715Z,3.47
2018-11-01T05:10:31.926Z,4.33
2018-11-01T05:12:44.136Z,3.50
2018-11-01T05:14:56.356Z,3.50
2018-11-01T05:17:08.542Z,3.47
2018-11-01T05:19:20.721Z,3.27
2018-11-01T05:21:32.908Z,4.40
2018-11-01T05:23:45.150Z,4.00
2018-11-01T05:25:57.394Z,5.07
2018-11-01T05:28:09.552Z,4.20
2018-11-01T05:30:21.723Z,4.43
2018-11-01T05:32:33.911Z,5.17
2018-11-01T05:34:46.100Z,5.23
2018-11-01T05:36:58.262Z,5.13
2018-11-01T05:39:11.919Z,4.67
2018-11-01T05:41:24.143Z,5.00
2018-11-01T05:43:36.299Z,5.10
2018-11-01T05:45:48.474Z,5.10
2018-11-01T05:48:00.723Z,4.67
2018-11-01T05:50:12.942Z,5.00
2018-11-01T05:52:25.116Z,5.10
2018-11-01T05:54:37.311Z,4.00
2018-11-01T05:56:49.506Z,4.20
2018-11-01T05:59:01.692Z,4.30
2018-11-01T06:01:18.437Z,4.27
2018-11-01T06:03:30.634Z,4.67
2018-11-01T06:05:42.978Z,4.40
2018-11-01T06:07:58.565Z,4.00
2018-11-01T06:10:10.799Z,4.57
2018-11-01T06:12:23.009Z,4.30
2018-11-01T06:14:35.202Z,4.43
2018-11-01T06:16:47.402Z,4.17
2018-11-01T06:18:59.584Z,3.40
2018-11-01T06:21:11.771Z,4.37
2018-11-01T06:23:23.925Z,4.13
2018-11-01T06:25:36.138Z,4.87
2018-11-01T06:27:48.340Z,4.60
2018-11-01T06:30:00.560Z,5.10
2018-11-01T06:32:12.773Z,4.57
2018-11-01T06:34:31.382Z,4.70
2018-11-01T06:36:43.584Z,4.80
2018-11-01T06:38:55.765Z,6.33
2018-11-01T06:41:07.975Z,5.90
2018-11-01T06:43:20.170Z,5.23
2018-11-01T06:45:32.350Z,4.67
2018-11-01T06:47:44.588Z,3.60
2018-11-01T06:49:56.815Z,6.20
2018-11-01T06:52:08.974Z,6.20
2018-11-01T06:54:21.130Z,5.63
2018-11-01T06:56:33.380Z,5.60
2018-11-01T06:58:45.594Z,5.50
2018-11-01T07:00:57.806Z,6.00
2018-11-01T07:03:09.961Z,5.43
2018-11-01T07:05:22.164Z,5.80
2018-11-01T07:07:34.579Z,5.27
2018-11-01T07:09:46.784Z,5.80
2018-11-01T07:11:58.974Z,5.17
2018-11-01T07:14:11.187Z,5.50
2018-11-01T07:16:23.414Z,5.17
2018-11-01T07:18:35.592Z,4.80
2018-11-01T07:20:47.767Z,5.23
2018-11-01T07:23:00.011Z,4.67
2018-11-01T07:25:13.630Z,5.37
2018-11-01T07:27:25.998Z,5.13
2018-11-01T07:29:38.174Z,4.23
2018-11-01T07:31:50.387Z,5.77
2018-11-01T07:34:02.573Z,5.90
2018-11-01T07:36:14.769Z,7.33
2018-11-01T07:38:27.038Z,6.70
2018-11-01T07:40:39.211Z,5.80
2018-11-01T07:42:51.419Z,5.77
2018-11-01T07:45:03.974Z,5.20
2018-11-01T07:47:16.152Z,5.57
2018-11-01T07:49:28.415Z,4.87
2018-11-01T07:51:40.684Z,5.20
2018-11-01T07:53:52.918Z,5.23
2018-11-01T07:56:05.119Z,6.20
2018-11-01T07:58:17.382Z,6.20
2018-11-01T08:00:29.519Z,5.10
2018-11-01T08:02:42.639Z,5.90
2018-11-01T08:04:54.851Z,6.50
2018-11-01T08:07:07.031Z,6.53
2018-11-01T08:09:19.298Z,6.53
2018-11-01T08:11:31.530Z,6.53
2018-11-01T08:13:43.706Z,6.33
2018-11-01T08:15:55.893Z,6.10
2018-11-01T08:18:08.155Z,6.33
2018-11-01T08:20:20.544Z,6.50
2018-11-01T08:22:32.643Z,5.33
2018-11-01T08:24:44.892Z,6.30
2018-11-01T08:26:57.133Z,7.23
2018-11-01T08:29:09.319Z,5.60
2018-11-01T08:31:21.566Z,6.60
2018-11-01T08:33:33.781Z,6.30
2018-11-01T08:35:45.987Z,6.03
2018-11-01T08:37:58.219Z,6.00
2018-11-01T08:40:11.011Z,5.50
2018-11-01T08:42:23.206Z,6.07
2018-11-01T08:44:35.422Z,4.97
2018-11-01T08:46:47.675Z,6.27
2018-11-01T08:48:59.925Z,6.00
2018-11-01T08:51:12.182Z,7.07
2018-11-01T08:53:24.367Z,5.97
2018-11-01T08:55:36.597Z,6.30
2018-11-01T08:57:48.943Z,6.50
2018-11-01T09:00:01.119Z,6.20
2018-11-01T09:02:13.460Z,5.87
2018-11-01T09:04:25.619Z,6.47
2018-11-01T09:06:37.802Z,7.63
2018-11-01T09:08:49.986Z,6.17
2018-11-01T09:11:02.379Z,6.37
2018-11-01T09:13:14.682Z,6.30
2018-11-01T09:15:26.767Z,7.80
2018-11-01T09:17:39.080Z,8.20
2018-11-01T09:19:51.265Z,8.60
2018-11-01T09:22:03.475Z,8.23
2018-11-01T09:24:15.680Z,9.17
2018-11-01T09:26:27.962Z,8.27
2018-11-01T09:28:40.534Z,7.80
2018-11-01T09:30:52.739Z,8.57
2018-11-01T09:33:05.246Z,8.10
2018-11-01T09:35:17.503Z,7.30
2018-11-01T09:37:29.743Z,6.50
2018-11-01T09:39:41.986Z,7.40
2018-11-01T09:41:54.187Z,8.17
2018-11-01T09:44:06.445Z,8.80
2018-11-01T09:46:18.905Z,9.30
2018-11-01T09:48:31.030Z,9.60
2018-11-01T09:50:43.287Z,9.10
2018-11-01T09:52:55.523Z,8.43
2018-11-01T09:55:07.844Z,8.63
2018-11-01T09:57:20.031Z,8.97
2018-11-01T09:59:32.239Z,7.90
2018-11-01T10:01:44.454Z,8.60
2018-11-01T10:03:56.709Z,9.03
2018-11-01T10:06:09.011Z,10.00
2018-11-01T10:08:21.218Z,9.77
2018-11-01T10:10:33.406Z,10.20
2018-11-01T10:12:45.618Z,10.27
2018-11-01T10:14:58.013Z,10.73
2018-11-01T10:17:10.387Z,12.07
2018-11-01T10:19:22.453Z,11.07
2018-11-01T10:21:34.704Z,10.93
2018-11-01T10:23:47.010Z,9.73
2018-11-01T10:25:59.215Z,10.00
2018-11-01T10:28:11.412Z,9.23
2018-11-01T10:30:23.646Z,9.17
2018-11-01T10:32:35.933Z,8.50
2018-11-01T10:34:48.186Z,8.70
2018-11-01T10:37:00.393Z,8.13
2018-11-01T10:39:12.671Z,8.20
2018-11-01T10:41:24.875Z,8.10
2018-11-01T10:43:37.150Z,8.20
2018-11-01T10:45:49.363Z,8.07
2018-11-01T10:48:01.607Z,8.03
2018-11-01T10:50:16.382Z,7.07
2018-11-01T10:52:29.270Z,6.83
2018-11-01T10:54:41.580Z,7.97
2018-11-01T10:56:53.786Z,7.73
2018-11-01T10:59:06.128Z,9.50
2018-11-01T11:01:23.846Z,7.93
2018-11-01T11:03:36.102Z,8.20
2018-11-01T11:05:48.387Z,7.63
2018-11-01T11:08:00.607Z,7.43
2018-11-01T11:10:13.031Z,6.77
2018-11-01T11:12:25.223Z,6.93
2018-11-01T11:14:37.496Z,7.40
2018-11-01T11:16:49.735Z,6.90
2018-11-01T11:19:01.987Z,6.90
2018-11-01T11:21:14.717Z,7.37
2018-11-01T11:23:26.467Z,7.47
2018-11-01T11:25:38.720Z,6.73
2018-11-01T11:27:50.977Z,6.70
2018-11-01T11:30:03.354Z,8.30
2018-11-01T11:32:15.587Z,7.43
2018-11-01T11:34:27.810Z,7.07
2018-11-01T11:36:40.075Z,7.43
2018-11-01T11:38:52.395Z,7.87
2018-11-01T11:41:04.759Z,8.13
2018-11-01T11:43:16.982Z,6.97
2018-11-01T11:45:29.186Z,7.40
2018-11-01T11:47:41.750Z,8.77
2018-11-01T11:49:53.980Z,8.43
2018-11-01T11:52:06.194Z,7.57
2018-11-01T11:54:18.455Z,7.53
2018-11-01T11:56:31.038Z,8.17
2018-11-01T11:58:43.261Z,8.07
2018-11-01T12:00:55.564Z,7.70
2018-11-01T12:03:07.853Z,7.77
2018-11-01T12:05:20.109Z,7.50
2018-11-01T12:07:32.342Z,7.70
2018-11-01T12:09:44.658Z,8.57
2018-11-01T12:11:56.847Z,8.20
2018-11-01T12:14:09.130Z,8.10
2018-11-01T12:16:21.309Z,8.03
2018-11-01T12:18:33.556Z,7.53
2018-11-01T12:20:45.823Z,7.93
2018-11-01T12:22:58.034Z,8.90
2018-11-01T12:25:10.698Z,7.90
2018-11-01T12:27:22.974Z,7.93
2018-11-01T12:29:35.210Z,8.23
2018-11-01T12:31:47.443Z,8.00
2018-11-01T12:33:59.648Z,8.43
2018-11-01T12:36:12.020Z,8.67
2018-11-01T12:38:24.325Z,8.10
2018-11-01T12:40:36.570Z,8.30
2018-11-01T12:42:48.823Z,7.77
2018-11-01T12:45:01.320Z,8.27
2018-11-01T12:47:13.554Z,8.03
2018-11-01T12:49:25.779Z,8.40
2018-11-01T12:51:38.049Z,7.50
2018-11-01T12:53:50.231Z,8.23
2018-11-01T12:56:02.561Z,8.27
2018-11-01T12:58:14.771Z,8.53
2018-11-01T13:00:27.018Z,8.33
2018-11-01T13:02:39.357Z,8.07
2018-11-01T13:04:51.738Z,7.77
2018-11-01T13:07:04.683Z,8.10
2018-11-01T13:09:17.015Z,8.50
2018-11-01T13:11:29.636Z,8.63
2018-11-01T13:13:42.024Z,9.10
2018-11-01T13:15:54.237Z,9.10
2018-11-01T13:18:06.538Z,8.83
2018-11-01T13:20:18.694Z,8.77
2018-11-01T13:22:30.942Z,8.37
2018-11-01T13:24:43.162Z,7.47
2018-11-01T13:26:55.424Z,7.23
2018-11-01T13:29:07.708Z,5.83
2018-11-01T13:31:19.867Z,4.67
2018-11-01T13:33:32.150Z,3.10
2018-11-01T13:35:44.307Z,2.37
2018-11-01T13:37:56.587Z,2.23
2018-11-01T13:40:09.560Z,2.60
2018-11-01T13:42:21.468Z,2.43
2018-11-01T13:44:34.513Z,2.10
2018-11-01T13:46:46.728Z,2.50
2018-11-01T13:48:59.405Z,2.83
2018-11-01T13:51:11.650Z,2.20
2018-11-01T13:53:23.906Z,2.00
2018-11-01T13:55:36.190Z,2.07
2018-11-01T13:57:48.398Z,2.10
2018-11-01T14:00:01.596Z,1.80
2018-11-01T14:02:13.785Z,2.47
2018-11-01T14:04:26.276Z,2.67
2018-11-01T14:06:38.516Z,2.13
2018-11-01T14:08:50.770Z,2.13
2018-11-01T14:11:05.247Z,2.20
2018-11-01T14:13:17.578Z,1.57
2018-11-01T14:15:29.798Z,2.10
2018-11-01T14:17:42.005Z,1.97
2018-11-01T14:19:54.230Z,2.00
2018-11-01T14:22:06.455Z,1.90
2018-11-01T14:24:18.718Z,1.50
2018-11-01T14:26:34.789Z,1.50
2018-11-01T14:28:47.011Z,2.10
2018-11-01T14:30:59.320Z,1.57
2018-11-01T14:33:11.454Z,1.70
2018-11-01T14:35:23.664Z,2.30
2018-11-01T14:37:35.881Z,2.30
2018-11-01T14:39:48.102Z,2.60
2018-11-01T14:42:00.402Z,3.50
2018-11-01T14:44:12.672Z,4.17
2018-11-01T14:46:26.028Z,2.47
2018-11-01T14:48:38.302Z,3.20
2018-11-01T14:50:50.560Z,2.80
2018-11-01T14:53:03.246Z,2.63
2018-11-01T14:55:16.483Z,2.77
2018-11-01T14:57:29.168Z,2.50
2018-11-01T14:59:41.472Z,2.40
2018-11-01T15:01:52.153Z,2.43
2018-11-01T15:04:04.375Z,3.00
2018-11-01T15:06:16.602Z,2.30
2018-11-01T15:08:28.850Z,2.70
2018-11-01T15:10:43.065Z,2.70
2018-11-01T15:12:55.321Z,3.10
2018-11-01T15:15:08.129Z,2.50
2018-11-01T15:17:20.384Z,2.67
2018-11-01T15:19:32.594Z,2.90
2018-11-01T15:21:44.825Z,2.80
2018-11-01T15:23:57.073Z,3.17
2018-11-01T15:26:09.364Z,3.07
2018-11-01T15:28:21.564Z,3.03
2018-11-01T15:30:33.831Z,3.53
2018-11-01T15:32:46.079Z,3.93
2018-11-01T15:34:58.427Z,3.00
2018-11-01T15:37:10.773Z,2.77
2018-11-01T15:39:22.987Z,2.33
2018-11-01T15:41:35.434Z,3.03
2018-11-01T15:43:47.681Z,2.87
2018-11-01T15:46:00.379Z,2.20
2018-11-01T15:48:12.670Z,2.60
2018-11-01T15:50:24.938Z,2.70
2018-11-01T15:52:37.182Z,2.53
2018-11-01T15:54:49.407Z,3.60
2018-11-01T15:57:01.634Z,3.00
2018-11-01T15:59:13.987Z,2.43
2018-11-01T16:01:26.259Z,2.97
2018-11-01T16:03:38.578Z,3.37
2018-11-01T16:05:51.707Z,4.23
2018-11-01T16:08:03.909Z,3.70
2018-11-01T16:10:16.181Z,5.30
2018-11-01T16:12:30.420Z,11.07
2018-11-01T16:14:45.445Z,10.97
2018-11-01T16:16:57.774Z,6.97
2018-11-01T16:19:11.201Z,4.80
2018-11-01T16:21:23.449Z,4.30
2018-11-01T16:23:35.674Z,4.23
2018-11-01T16:25:47.929Z,4.17
2018-11-01T16:28:00.221Z,4.30
2018-11-01T16:30:15.478Z,4.03
2018-11-01T16:32:27.696Z,3.93
2018-11-01T16:34:39.950Z,4.40
2018-11-01T16:36:52.328Z,4.57
2018-11-01T16:39:08.750Z,6.63
2018-11-01T16:41:20.977Z,4.30
2018-11-01T16:43:33.292Z,4.63
2018-11-01T16:45:45.537Z,3.67
2018-11-01T16:47:57.783Z,4.60
2018-11-01T16:50:10.461Z,5.13
2018-11-01T16:52:22.714Z,4.73
2018-11-01T16:54:35.153Z,4.57
2018-11-01T16:56:47.408Z,4.60
2018-11-01T16:58:59.746Z,4.50
2018-11-01T17:01:12.010Z,4.63
2018-11-01T17:03:24.233Z,4.33
2018-11-01T17:05:36.419Z,4.50
2018-11-01T17:07:48.710Z,4.87
2018-11-01T17:10:00.992Z,3.80
2018-11-01T17:12:13.237Z,4.07
2018-11-01T17:14:25.512Z,4.30
2018-11-01T17:16:37.807Z,6.77
2018-11-01T17:18:50.102Z,5.87
2018-11-01T17:21:08.110Z,6.70
2018-11-01T17:23:20.647Z,5.40
2018-11-01T17:25:32.906Z,5.97
2018-11-01T17:27:45.123Z,7.43
2018-11-01T17:29:57.826Z,7.30
2018-11-01T17:32:10.389Z,7.40
2018-11-01T17:34:22.832Z,6.87
2018-11-01T17:36:35.040Z,7.43
2018-11-01T17:38:47.298Z,6.87
2018-11-01T17:40:59.637Z,6.40
2018-11-01T17:43:12.158Z,6.10
2018-11-01T17:45:24.370Z,5.60
2018-11-01T17:47:37.199Z,5.43
2018-11-01T17:49:49.489Z,5.70
2018-11-01T17:52:01.790Z,5.20
2018-11-01T17:54:15.319Z,5.50
2018-11-01T17:56:27.696Z,4.97
2018-11-01T18:01:01.683Z,6.17
2018-11-01T18:03:13.974Z,5.53
2018-11-01T18:05:26.524Z,6.47
2018-11-01T18:07:39.358Z,6.27
2018-11-01T18:09:51.836Z,5.07
2018-11-01T18:12:04.907Z,5.73
2018-11-01T18:14:17.202Z,5.93
2018-11-01T18:16:29.416Z,5.87
2018-11-01T18:18:41.646Z,6.60
2018-11-01T18:20:53.954Z,6.50
2018-11-01T18:23:06.211Z,6.07
2018-11-01T18:25:18.416Z,7.40
2018-11-01T18:27:30.682Z,8.07
2018-11-01T18:29:43.370Z,7.27
2018-11-01T18:31:55.840Z,6.13
2018-11-01T18:34:08.151Z,5.80
2018-11-01T18:36:20.535Z,5.73
2018-11-01T18:38:32.777Z,5.13
2018-11-01T18:40:45.079Z,6.07
2018-11-01T18:42:57.305Z,8.70
2018-11-01T18:45:11.240Z,6.90
2018-11-01T18:47:23.547Z,6.63
2018-11-01T18:49:35.824Z,5.77
2018-11-01T18:51:52.101Z,4.50
2018-11-01T18:54:04.807Z,3.63
2018-11-01T18:56:16.929Z,4.67
2018-11-01T18:58:29.179Z,4.73
2018-11-01T19:00:41.557Z,5.30
2018-11-01T19:02:53.677Z,4.23
2018-11-01T19:05:06.520Z,5.90
2018-11-01T19:07:18.835Z,5.30
2018-11-01T19:09:31.125Z,6.07
2018-11-01T19:11:43.389Z,4.80
2018-11-01T19:13:55.716Z,5.20
2018-11-01T19:16:07.982Z,4.70
2018-11-01T19:18:20.217Z,4.43
2018-11-01T19:20:32.497Z,4.93
2018-11-01T19:22:44.779Z,4.70
2018-11-01T19:24:57.072Z,4.33
2018-11-01T19:27:09.498Z,4.23
2018-11-01T19:29:22.138Z,5.00
2018-11-01T19:31:34.427Z,4.93
2018-11-01T19:33:46.737Z,4.70
2018-11-01T19:35:58.951Z,4.47
2018-11-01T19:38:11.209Z,5.33
2018-11-01T19:40:31.422Z,4.20
2018-11-01T19:42:44.078Z,5.60
2018-11-01T19:44:56.341Z,5.60
2018-11-01T19:47:08.622Z,6.47
2018-11-01T19:49:20.968Z,5.57
2018-11-01T19:51:33.215Z,5.37
2018-11-01T19:53:45.530Z,5.87
2018-11-01T19:55:57.830Z,6.27
2018-11-01T19:58:10.111Z,6.40
2018-11-01T20:00:22.375Z,5.87
2018-11-01T20:02:34.752Z,6.03
2018-11-01T20:04:46.946Z,6.83
2018-11-01T20:06:59.194Z,5.60
2018-11-01T20:09:11.473Z,6.10
2018-11-01T20:11:23.790Z,7.83
2018-11-01T20:13:36.044Z,7.40
2018-11-01T20:15:48.341Z,5.93
2018-11-01T20:18:00.618Z,7.00
2018-11-01T20:20:13.350Z,7.43
2018-11-01T20:22:25.659Z,7.57
2018-11-01T20:24:37.898Z,7.07
2018-11-01T20:26:50.192Z,8.07
2018-11-01T20:29:02.458Z,7.63
2018-11-01T20:31:14.848Z,7.77
2018-11-01T20:33:32.872Z,7.27
2018-11-01T20:35:45.060Z,6.17
2018-11-01T20:37:57.372Z,5.23
2018-11-01T20:40:09.861Z,5.47
2018-11-01T20:42:22.134Z,4.83
2018-11-01T20:44:34.395Z,5.60
2018-11-01T20:46:46.669Z,6.13
2018-11-01T20:48:58.902Z,5.00
2018-11-01T20:51:11.179Z,4.47
2018-11-01T20:53:23.510Z,3.50
2018-11-01T20:55:35.767Z,3.23
2018-11-01T20:57:48.052Z,3.90
2018-11-01T21:00:00.286Z,3.43
2018-11-01T21:02:12.528Z,3.23
2018-11-01T21:04:24.947Z,3.17
2018-11-01T21:06:37.199Z,2.77
2018-11-01T21:08:49.474Z,2.70
2018-11-01T21:11:01.891Z,2.33
2018-11-01T21:13:14.113Z,2.70
2018-11-01T21:15:26.327Z,2.47
2018-11-01T21:17:38.586Z,3.00
2018-11-01T21:19:50.830Z,2.00
2018-11-01T21:22:04.558Z,2.40
2018-11-01T21:24:16.805Z,2.10
2018-11-01T21:26:29.074Z,2.40
2018-11-01T21:28:41.349Z,2.60
2018-11-01T21:30:53.617Z,2.40
2018-11-01T21:33:05.934Z,2.57
2018-11-01T21:35:18.232Z,2.23
2018-11-01T21:37:30.378Z,2.03
2018-11-01T21:39:42.642Z,2.10
2018-11-01T21:41:54.985Z,2.00
2018-11-01T21:44:07.154Z,2.00
2018-11-01T21:46:19.432Z,1.83
2018-11-01T21:48:31.673Z,2.03
2018-11-01T21:50:44.004Z,1.70
2018-11-01T21:52:56.287Z,1.80
2018-11-01T21:55:08.849Z,1.60
2018-11-01T21:57:21.062Z,1.90
2018-11-01T21:59:33.301Z,1.73
2018-11-01T22:01:45.564Z,1.47
2018-11-01T22:03:57.803Z,2.00
2018-11-01T22:06:10.065Z,1.97
2018-11-01T22:08:22.342Z,1.70
2018-11-01T22:10:34.555Z,1.70
2018-11-01T22:12:46.825Z,1.50
2018-11-01T22:14:59.098Z,1.60
2018-11-01T22:17:11.316Z,1.73
2018-11-01T22:19:23.551Z,1.90
2018-11-01T22:21:35.807Z,1.77
2018-11-01T22:23:47.988Z,1.60
2018-11-01T22:26:00.187Z,1.30
2018-11-01T22:28:12.568Z,1.60
2018-11-01T22:30:24.687Z,1.27
2018-11-01T22:32:36.962Z,1.50
2018-11-01T22:34:49.209Z,1.40
2018-11-01T22:37:01.444Z,1.67
2018-11-01T22:39:13.699Z,1.57
2018-11-01T22:41:25.915Z,1.70
2018-11-01T22:43:38.203Z,1.40
2018-11-01T22:45:50.419Z,1.50
2018-11-01T22:48:02.679Z,1.47
2018-11-01T22:50:14.898Z,1.60
2018-11-01T22:52:27.178Z,1.70
2018-11-01T22:54:39.446Z,1.70
2018-11-01T22:56:51.656Z,1.43
2018-11-01T22:59:04.114Z,1.10
2018-11-01T23:01:16.351Z,1.23
2018-11-01T23:03:28.646Z,1.33
2018-11-01T23:05:40.885Z,1.17
2018-11-01T23:07:53.089Z,1.10
2018-11-01T23:10:07.913Z,1.40
2018-11-01T23:12:20.147Z,1.00
2018-11-01T23:14:32.376Z,0.97
2018-11-01T23:16:44.600Z,0.87
2018-11-01T23:18:56.870Z,0.80
2018-11-01T23:21:09.072Z,1.07
2018-11-01T23:23:21.250Z,1.07
2018-11-01T23:27:52.511Z,1.20
2018-11-01T23:30:05.270Z,1.20
2018-11-01T23:32:17.531Z,1.10
2018-11-01T23:34:29.734Z,1.00
2018-11-01T23:36:47.559Z,1.10
2018-11-01T23:39:05.494Z,0.70
2018-11-01T23:41:23.402Z,1.10
2018-11-01T23:43:41.573Z,0.83
2018-11-01T23:45:59.274Z,0.80
2018-11-01T23:48:10.995Z,0.80
2018-11-01T23:51:27.198Z,0.60
2018-11-01T23:53:44.319Z,0.87
2018-11-01T23:55:57.142Z,0.77
2018-11-01T23:58:09.483Z,0.70
